Time;durP1;ratioP1;P1;durP2;ratioP2;P2;SDS_P1;SDS_P2;PMS_P1;PMS_P2;Temp;Humidity;BMP_temperature;BMP_pressure;BME280_temperature;BME280_humidity;BME280_pressure;Samples;Min_cycle;Max_cycle;Signal;HPM_P1;HPM_P2
2023/09/02 00:00:03;;;;;;;4.55;1.63;;;;;;;23.64;56.16;100847.28;5084133;28;20052;-42
2023/09/02 00:02:29;;;;;;;5.07;1.88;;;;;;;23.90;55.16;100851.31;5094809;28;20478;-42
2023/09/02 00:04:55;;;;;;;3.78;1.65;;;;;;;23.81;54.44;100858.53;5105647;28;20023;-41
2023/09/02 00:07:21;;;;;;;4.10;1.98;;;;;;;23.89;55.29;100844.22;5103029;28;20032;-41
2023/09/02 00:09:48;;;;;;;4.68;1.63;;;;;;;23.71;54.76;100831.38;5095254;28;20434;-41
2023/09/02 00:12:14;;;;;;;2.72;1.45;;;;;;;23.56;55.28;100828.81;5089904;28;20031;-42
2023/09/02 00:14:40;;;;;;;3.72;1.63;;;;;;;23.46;55.89;100827.00;5096822;28;20031;-42
2023/09/02 00:17:07;;;;;;;5.43;1.90;;;;;;;23.41;55.68;100827.88;5084224;28;20032;-42
2023/09/02 00:19:33;;;;;;;4.13;1.70;;;;;;;23.34;54.47;100826.63;5094299;28;20048;-42
2023/09/02 00:21:59;;;;;;;3.03;1.40;;;;;;;23.19;55.75;100822.94;5097098;28;20028;-41
2023/09/02 00:24:25;;;;;;;3.65;2.15;;;;;;;23.05;56.41;100826.69;5077059;28;20027;-42
2023/09/02 00:26:52;;;;;;;3.70;1.52;;;;;;;23.03;56.93;100826.13;5088367;28;20044;-42
2023/09/02 00:29:18;;;;;;;6.50;2.15;;;;;;;22.97;55.97;100827.28;5113415;28;20084;-41
2023/09/02 00:31:44;;;;;;;3.53;1.50;;;;;;;22.70;57.47;100825.88;5116718;28;20187;-41
2023/09/02 00:34:10;;;;;;;2.63;1.38;;;;;;;22.43;58.06;100810.03;5088209;28;20038;-42
2023/09/02 00:36:37;;;;;;;2.45;1.38;;;;;;;22.50;58.05;100813.25;5098158;28;20032;-42
2023/09/02 00:39:03;;;;;;;7.25;2.00;;;;;;;22.53;58.13;100818.13;5076821;28;20028;-42
2023/09/02 00:41:32;;;;;;;4.18;1.27;;;;;;;22.32;58.16;100822.13;5089285;28;20048;-42
2023/09/02 00:43:59;;;;;;;2.63;1.17;;;;;;;22.31;59.21;100823.22;5093260;28;20043;-41
2023/09/02 00:46:25;;;;;;;3.58;1.20;;;;;;;22.13;58.84;100808.38;5098136;28;20059;-41
2023/09/02 00:48:51;;;;;;;3.70;1.80;;;;;;;22.17;59.13;100820.34;5100793;28;20028;-41
2023/09/02 00:51:18;;;;;;;2.83;1.38;;;;;;;22.14;58.64;100818.16;5090625;28;20024;-41
2023/09/02 00:53:47;;;;;;;4.72;1.33;;;;;;;22.18;59.07;100821.97;5096679;28;20116;-41
2023/09/02 00:56:15;;;;;;;2.95;1.50;;;;;;;22.04;59.08;100816.31;5079961;28;20068;-41
2023/09/02 00:58:42;;;;;;;3.25;1.02;;;;;;;21.90;58.83;100820.75;5090448;28;20027;-41
2023/09/02 01:01:09;;;;;;;1.55;1.20;;;;;;;21.88;59.71;100822.97;5094714;28;20020;-42
2023/09/02 01:03:36;;;;;;;5.15;1.85;;;;;;;21.85;59.86;100816.16;5095020;28;20034;-42
2023/09/02 01:06:03;;;;;;;3.90;1.33;;;;;;;21.73;59.74;100820.31;5094480;28;20115;-42
2023/09/02 01:08:33;;;;;;;2.28;1.30;;;;;;;21.92;59.04;100831.38;5094931;28;20549;-42
2023/09/02 01:11:00;;;;;;;4.28;1.23;;;;;;;21.87;59.39;100832.22;5076490;28;20112;-43
2023/09/02 01:13:28;;;;;;;1.88;1.13;;;;;;;21.65;59.54;100827.16;5094473;28;20513;-42
2023/09/02 01:15:55;;;;;;;3.95;1.35;;;;;;;21.64;60.07;100824.72;5094845;28;20107;-42
2023/09/02 01:18:25;;;;;;;3.15;1.17;;;;;;;21.50;60.53;100816.34;5094975;28;20089;-42
2023/09/02 01:21:11;;;;;;;2.15;1.30;;;;;;;21.28;61.49;100819.41;5094816;28;20024;-42
2023/09/02 01:23:48;;;;;;;2.28;1.13;;;;;;;21.26;61.63;100811.50;5094270;28;20024;-42
2023/09/02 01:26:53;;;;;;;6.45;1.27;;;;;;;21.37;62.49;100814.22;5094404;28;20474;-42
2023/09/02 01:29:24;;;;;;;4.97;1.55;;;;;;;21.47;61.49;100820.44;5094593;28;20024;-42
2023/09/02 01:31:52;;;;;;;1.98;1.60;;;;;;;21.59;60.42;100825.56;5092252;28;20016;-42
2023/09/02 01:34:21;;;;;;;3.35;1.50;;;;;;;21.56;60.55;100826.94;5090651;28;20016;-42
2023/09/02 01:36:52;;;;;;;2.08;1.33;;;;;;;21.68;60.45;100829.34;5094294;28;20059;-42
2023/09/02 01:39:21;;;;;;;2.60;1.67;;;;;;;21.64;60.98;100820.06;5089436;28;20027;-41
2023/09/02 01:41:48;;;;;;;2.80;1.48;;;;;;;21.52;60.87;100823.13;5109978;28;20490;-42
2023/09/02 01:44:16;;;;;;;3.08;1.23;;;;;;;21.34;61.03;100819.13;5077103;28;20066;-41
2023/09/02 01:46:42;;;;;;;3.20;2.08;;;;;;;21.35;61.13;100828.94;5091849;28;20382;-41
2023/09/02 01:49:09;;;;;;;2.95;2.00;;;;;;;21.15;62.07;100826.22;5094151;28;20032;-41
2023/09/02 01:51:36;;;;;;;6.20;2.00;;;;;;;21.25;62.18;100836.28;5093188;28;20473;-42
2023/09/02 01:54:02;;;;;;;2.35;1.33;;;;;;;21.19;61.79;100827.31;5093743;28;20470;-41
2023/09/02 01:56:30;;;;;;;3.47;1.73;;;;;;;20.97;63.03;100830.38;5093919;28;20389;-41
2023/09/02 01:58:57;;;;;;;7.72;1.80;;;;;;;21.02;62.74;100824.09;5093741;28;20031;-41
2023/09/02 02:01:24;;;;;;;2.95;1.88;;;;;;;21.03;63.01;100823.00;5093463;28;20107;-41
2023/09/02 02:03:59;;;;;;;6.95;2.45;;;;;;;20.94;63.30;100820.03;5093352;28;20482;-41
2023/09/02 02:06:26;;;;;;;3.60;2.13;;;;;;;20.93;63.50;100817.56;5093226;28;20385;-41
2023/09/02 02:09:05;;;;;;;4.55;1.85;;;;;;;20.83;63.60;100829.31;5093616;28;20103;-40
2023/09/02 02:11:37;;;;;;;3.47;1.83;;;;;;;20.72;63.86;100833.97;5093252;28;20035;-41
2023/09/02 02:14:05;;;;;;;4.82;2.40;;;;;;;20.76;64.21;100835.00;5093445;28;20078;-40
2023/09/02 02:16:32;;;;;;;4.18;1.80;;;;;;;20.76;64.23;100835.00;5093335;28;20383;-41
2023/09/02 02:18:59;;;;;;;4.35;2.08;;;;;;;20.43;65.26;100830.09;5093099;28;20103;-41
2023/09/02 02:21:28;;;;;;;4.88;1.98;;;;;;;20.42;65.52;100837.44;5093206;28;20020;-41
2023/09/02 02:23:54;;;;;;;3.50;1.92;;;;;;;20.53;65.30;100835.59;5093202;28;20016;-40
2023/09/02 02:26:20;;;;;;;4.35;2.08;;;;;;;20.38;65.77;100833.66;5093171;28;20059;-40
2023/09/02 02:28:47;;;;;;;6.20;2.55;;;;;;;20.28;66.76;100853.50;5093032;28;20020;-40
2023/09/02 02:31:14;;;;;;;3.40;2.03;;;;;;;20.42;65.84;100853.75;5092863;28;20012;-40
2023/09/02 02:33:40;;;;;;;10.88;2.10;;;;;;;20.31;66.25;100865.72;5092956;28;20106;-40
2023/09/02 02:36:09;;;;;;;3.35;1.90;;;;;;;20.29;66.79;100863.28;5093002;28;20034;-41
2023/09/02 02:38:36;;;;;;;5.93;3.05;;;;;;;20.39;66.46;100867.09;5093045;28;20454;-41
2023/09/02 02:41:02;;;;;;;6.63;4.65;;;;;;;20.17;67.46;100860.00;5092654;28;20093;-41
2023/09/02 02:43:29;;;;;;;7.18;2.10;;;;;;;19.96;68.42;100861.84;5092994;28;20028;-42
2023/09/02 02:45:55;;;;;;;6.78;2.28;;;;;;;19.98;68.49;100850.72;5092912;28;20115;-41
2023/09/02 02:48:28;;;;;;;3.53;2.38;;;;;;;19.91;68.99;100858.31;5092799;28;20028;-41
2023/09/02 02:50:55;;;;;;;6.28;2.97;;;;;;;19.93;68.53;100854.25;5092475;28;20027;-42
2023/09/02 02:53:21;;;;;;;7.00;3.90;;;;;;;19.78;68.64;100855.03;5092534;28;20040;-41
2023/09/02 02:55:48;;;;;;;5.18;2.25;;;;;;;19.78;68.59;100846.88;5092989;28;20028;-42
2023/09/02 02:58:16;;;;;;;4.05;1.80;;;;;;;19.78;67.94;100846.88;5092800;28;20051;-42
2023/09/02 03:00:49;;;;;;;3.42;1.85;;;;;;;20.01;67.18;100842.03;5092705;28;20097;-42
2023/09/02 03:03:16;;;;;;;5.13;2.30;;;;;;;20.01;67.64;100840.13;5091920;28;20024;-42
2023/09/02 03:05:42;;;;;;;4.72;2.75;;;;;;;19.93;67.47;100847.97;5092772;28;20126;-42
2023/09/02 03:08:10;;;;;;;10.35;5.25;;;;;;;19.70;69.05;100838.41;5092361;28;20031;-42
2023/09/02 03:10:37;;;;;;;5.40;3.38;;;;;;;19.84;68.98;100847.69;5092381;28;20028;-42
2023/09/02 03:13:04;;;;;;;6.90;2.40;;;;;;;19.87;68.47;100870.78;5085239;28;20034;-42
2023/09/02 03:15:30;;;;;;;6.15;2.42;;;;;;;19.90;68.29;100876.50;5092017;28;20020;-42
2023/09/02 03:17:57;;;;;;;4.00;1.90;;;;;;;19.91;67.98;100877.31;5091547;28;20031;-42
2023/09/02 03:20:23;;;;;;;7.82;3.60;;;;;;;19.71;68.69;100880.78;5092399;28;20028;-42
2023/09/02 03:22:49;;;;;;;4.40;2.42;;;;;;;19.81;68.48;100874.56;5091954;28;20024;-42
2023/09/02 03:25:15;;;;;;;7.38;3.50;;;;;;;19.83;68.82;100880.56;5092218;28;20024;-42
2023/09/02 03:27:42;;;;;;;5.47;2.90;;;;;;;19.84;68.83;100893.88;5092223;28;20028;-42
2023/09/02 03:30:09;;;;;;;7.70;3.55;;;;;;;19.87;68.62;100897.94;5092295;28;20069;-42
2023/09/02 03:32:35;;;;;;;5.20;3.10;;;;;;;19.75;69.16;100900.91;5092368;28;20035;-42
2023/09/02 03:35:04;;;;;;;5.72;3.00;;;;;;;19.80;68.83;100903.63;5092138;28;20393;-42
2023/09/02 03:37:30;;;;;;;8.70;3.20;;;;;;;19.76;69.05;100902.53;5092259;28;20028;-42
2023/09/02 03:39:57;;;;;;;6.32;3.58;;;;;;;19.71;68.90;100892.47;5079480;28;20072;-42
2023/09/02 03:42:23;;;;;;;5.97;2.88;;;;;;;19.69;69.53;100907.38;5071831;28;20028;-42
2023/09/02 03:44:50;;;;;;;6.05;3.53;;;;;;;19.55;69.94;100907.03;5071992;28;20492;-42
2023/09/02 03:47:16;;;;;;;5.72;2.67;;;;;;;19.55;69.87;100895.38;5071899;28;20051;-42
2023/09/02 03:49:42;;;;;;;5.72;3.80;;;;;;;19.56;69.66;100910.56;5072187;28;20371;-42
2023/09/02 03:52:08;;;;;;;5.13;3.05;;;;;;;19.46;70.61;100916.75;5071447;28;20445;-42
2023/09/02 03:54:35;;;;;;;5.13;2.70;;;;;;;19.36;71.52;100919.41;5072930;28;20043;-42
2023/09/02 03:57:02;;;;;;;6.38;2.85;;;;;;;19.41;71.26;100922.97;5091868;28;20029;-42
2023/09/02 03:59:28;;;;;;;7.28;3.00;;;;;;;19.43;71.50;100920.81;5085025;28;20478;-42
2023/09/02 04:01:54;;;;;;;4.85;3.00;;;;;;;19.31;71.93;100933.75;5091072;28;20107;-42
2023/09/02 04:04:21;;;;;;;6.38;3.65;;;;;;;19.34;72.23;100927.00;5091808;28;20039;-42
2023/09/02 04:06:47;;;;;;;8.50;3.80;;;;;;;19.16;72.85;100933.69;5091863;28;20028;-42
2023/09/02 04:09:13;;;;;;;11.82;3.58;;;;;;;19.26;72.48;100931.00;5091819;28;20032;-42
2023/09/02 04:11:40;;;;;;;6.47;3.10;;;;;;;19.25;72.97;100930.19;5072578;28;20143;-42
2023/09/02 04:14:06;;;;;;;6.00;3.00;;;;;;;19.19;73.59;100935.84;5071095;28;20049;-42
2023/09/02 04:16:33;;;;;;;6.75;3.10;;;;;;;19.21;73.80;100941.81;5071383;28;20036;-42
2023/09/02 04:19:02;;;;;;;8.27;4.43;;;;;;;19.28;73.64;100941.63;5071524;28;20035;-42
2023/09/02 04:21:30;;;;;;;6.60;3.45;;;;;;;19.04;75.19;100938.44;5071545;28;20382;-42
2023/09/02 04:23:56;;;;;;;9.25;4.15;;;;;;;19.12;74.99;100943.41;5071234;28;20039;-42
2023/09/02 04:26:22;;;;;;;7.95;3.75;;;;;;;19.04;75.26;100938.44;5071449;28;20028;-42
2023/09/02 04:28:50;;;;;;;5.90;3.03;;;;;;;19.15;75.42;100940.97;5085381;28;20028;-39
2023/09/02 04:31:16;;;;;;;7.60;3.00;;;;;;;19.06;75.61;100939.03;5095086;28;20039;-39
2023/09/02 04:33:42;;;;;;;7.75;3.67;;;;;;;18.89;76.61;100947.28;5095167;28;20115;-39
2023/09/02 04:36:09;;;;;;;7.65;3.40;;;;;;;19.01;76.19;100947.94;5095324;28;20056;-39
2023/09/02 04:38:35;;;;;;;5.13;2.60;;;;;;;18.90;76.56;100941.59;5094263;28;20089;-39
2023/09/02 04:41:06;;;;;;;7.57;2.83;;;;;;;19.02;76.25;100943.31;5078309;28;20028;-39
2023/09/02 04:43:33;;;;;;;10.75;2.78;;;;;;;19.01;75.95;100942.50;5075118;28;20032;-39
2023/09/02 04:46:03;;;;;;;9.73;3.22;;;;;;;18.96;76.63;100942.47;5074707;28;20543;-39
2023/09/02 04:48:30;;;;;;;7.25;2.85;;;;;;;18.88;77.12;100951.09;5077616;28;20028;-39
2023/09/02 04:50:58;;;;;;;7.50;3.60;;;;;;;18.92;76.84;100952.19;5074351;28;20398;-42
2023/09/02 04:53:25;;;;;;;8.43;3.20;;;;;;;18.87;77.62;100958.38;5074832;28;20032;-42
2023/09/02 04:55:51;;;;;;;7.05;2.72;;;;;;;18.90;77.80;100952.44;5089337;28;20110;-42
2023/09/02 04:58:20;;;;;;;5.05;2.83;;;;;;;18.94;77.83;100959.00;5095055;28;20478;-42
2023/09/02 05:00:46;;;;;;;9.23;3.20;;;;;;;18.84;78.30;100960.81;5087236;28;20024;-42
2023/09/02 05:03:12;;;;;;;5.03;2.75;;;;;;;18.95;77.90;100957.09;5095543;28;20027;-44
2023/09/02 05:05:40;;;;;;;5.10;3.00;;;;;;;18.89;77.64;100960.84;5093604;28;20111;-44
2023/09/02 05:08:06;;;;;;;5.10;2.33;;;;;;;18.92;78.32;100957.63;5094719;28;20110;-44
2023/09/02 05:10:33;;;;;;;8.10;2.85;;;;;;;18.78;78.98;100957.25;5094534;28;20024;-43
2023/09/02 05:13:00;;;;;;;4.68;2.45;;;;;;;18.83;78.87;100959.19;5094480;28;20055;-44
2023/09/02 05:15:26;;;;;;;8.45;2.67;;;;;;;18.81;78.83;100956.69;5094492;28;20042;-43
2023/09/02 05:17:52;;;;;;;7.65;2.20;;;;;;;18.85;78.58;100962.44;5095095;28;20028;-43
2023/09/02 05:20:19;;;;;;;6.50;2.97;;;;;;;18.82;78.64;100974.63;5081185;28;20116;-43
2023/09/02 05:22:45;;;;;;;6.13;3.70;;;;;;;18.84;78.78;100961.63;5074095;28;20114;-43
2023/09/02 05:25:11;;;;;;;5.03;2.63;;;;;;;18.82;78.96;100966.50;5073686;28;20449;-43
2023/09/02 05:27:38;;;;;;;6.65;2.80;;;;;;;18.91;78.63;100964.94;5074668;28;20032;-40
2023/09/02 05:30:06;;;;;;;4.65;2.00;;;;;;;18.97;78.70;100963.09;5073883;28;20024;-40
2023/09/02 05:32:32;;;;;;;9.05;2.85;;;;;;;18.92;78.50;100961.13;5073763;28;20078;-40
2023/09/02 05:34:58;;;;;;;4.10;2.55;;;;;;;18.81;79.41;100962.13;5073932;28;20119;-40
2023/09/02 05:37:25;;;;;;;5.80;2.45;;;;;;;18.87;79.03;100971.13;5073814;28;20056;-40
2023/09/02 05:39:51;;;;;;;6.78;2.75;;;;;;;18.87;78.92;100979.25;5073439;28;20533;-40
2023/09/02 05:42:17;;;;;;;7.35;2.10;;;;;;;18.95;78.27;100968.78;5076501;28;20111;-40
2023/09/02 05:44:43;;;;;;;6.72;2.50;;;;;;;19.03;78.13;100981.03;5075071;28;20107;-39
2023/09/02 05:47:10;;;;;;;6.88;2.13;;;;;;;18.93;78.51;100978.22;5073725;28;20058;-39
2023/09/02 05:49:37;;;;;;;8.18;2.95;;;;;;;18.95;78.53;100974.19;5073475;28;20547;-41
2023/09/02 05:52:06;;;;;;;6.05;2.58;;;;;;;19.01;78.83;100972.34;5071036;28;20564;-39
2023/09/02 05:54:33;;;;;;;6.70;2.60;;;;;;;18.98;78.43;100981.00;5073450;28;20028;-42
2023/09/02 05:56:59;;;;;;;8.18;3.03;;;;;;;19.01;78.39;100982.38;5073931;28;20040;-44
2023/09/02 05:59:26;;;;;;;7.43;2.65;;;;;;;18.97;78.57;100991.03;5073582;28;20047;-39
2023/09/02 06:01:52;;;;;;;7.88;3.10;;;;;;;19.04;78.86;100987.28;5072643;28;20183;-39
2023/09/02 06:04:18;;;;;;;6.38;2.75;;;;;;;18.87;79.60;100992.81;5073801;28;20029;-39
2023/09/02 06:06:44;;;;;;;12.05;3.35;;;;;;;18.79;79.86;100996.84;5073203;28;20033;-39
2023/09/02 06:09:10;;;;;;;7.63;2.90;;;;;;;19.07;79.15;100993.00;5072492;28;20021;-39
2023/09/02 06:11:37;;;;;;;6.47;2.97;;;;;;;18.86;80.27;100988.47;5073109;28;20032;-39
2023/09/02 06:14:03;;;;;;;5.75;2.50;;;;;;;18.93;79.74;100991.78;5072225;28;20433;-39
2023/09/02 06:16:29;;;;;;;5.40;2.78;;;;;;;18.96;79.74;100992.09;5073357;28;20104;-39
2023/09/02 06:18:56;;;;;;;8.10;2.67;;;;;;;18.79;79.86;101002.25;5073583;28;20074;-39
2023/09/02 06:21:22;;;;;;;7.82;3.00;;;;;;;18.92;79.37;101001.81;5072961;28;20131;-39
2023/09/02 06:23:49;;;;;;;9.63;3.10;;;;;;;18.78;80.19;101003.34;5072988;28;20029;-39
2023/09/02 06:26:16;;;;;;;4.00;2.40;;;;;;;18.70;80.68;101003.78;5072782;28;20024;-39
2023/09/02 06:28:42;;;;;;;4.85;2.75;;;;;;;18.75;80.36;101011.16;5072935;28;20067;-39
2023/09/02 06:31:10;;;;;;;4.80;2.60;;;;;;;18.91;79.74;101002.09;5072733;28;20482;-39
2023/09/02 06:33:36;;;;;;;5.65;2.75;;;;;;;18.80;79.28;101008.50;5078852;28;20086;-39
2023/09/02 06:36:13;;;;;;;4.97;2.25;;;;;;;18.78;80.05;101005.22;5072959;28;20094;-39
2023/09/02 06:38:39;;;;;;;5.53;2.35;;;;;;;18.78;79.27;101005.22;5072733;28;20025;-39
2023/09/02 06:41:13;;;;;;;7.22;2.55;;;;;;;18.81;79.16;100994.66;5072332;28;20028;-39
2023/09/02 06:43:40;;;;;;;6.25;2.42;;;;;;;18.85;78.62;101001.22;5072679;28;20020;-39
2023/09/02 06:46:18;;;;;;;8.18;2.55;;;;;;;18.79;79.14;101004.16;5072509;28;20028;-39
2023/09/02 06:48:44;;;;;;;5.47;2.17;;;;;;;18.73;79.32;101006.00;5072682;28;20026;-39
2023/09/02 06:51:11;;;;;;;5.75;2.72;;;;;;;18.72;79.99;101007.06;5072097;28;20465;-39
2023/09/02 06:53:38;;;;;;;7.90;3.22;;;;;;;18.72;80.11;101007.06;5072326;28;20047;-39
2023/09/02 06:56:08;;;;;;;10.77;3.55;;;;;;;18.80;80.46;101000.34;5072687;28;20119;-39
2023/09/02 06:58:36;;;;;;;7.13;2.85;;;;;;;18.73;80.21;101012.22;5083137;28;20020;-39
2023/09/02 07:01:03;;;;;;;6.47;2.95;;;;;;;18.69;80.79;101005.69;5092306;28;20028;-39
2023/09/02 07:03:29;;;;;;;10.82;3.08;;;;;;;18.55;81.45;101001.72;5092532;28;20035;-39
2023/09/02 07:06:04;;;;;;;10.68;3.13;;;;;;;18.50;82.02;101004.38;5086343;28;20089;-39
2023/09/02 07:08:31;;;;;;;11.95;3.20;;;;;;;18.68;81.86;101014.06;5088771;28;20033;-39
2023/09/02 07:10:57;;;;;;;9.10;2.80;;;;;;;18.64;81.74;101013.72;5072249;28;20028;-39
2023/09/02 07:13:23;;;;;;;6.47;2.38;;;;;;;18.47;82.94;101021.13;5072189;28;20106;-39
2023/09/02 07:15:58;;;;;;;7.25;2.45;;;;;;;18.40;83.56;101015.91;5072496;28;20031;-39
2023/09/02 07:18:25;;;;;;;10.23;3.58;;;;;;;18.57;83.54;101013.13;5071941;28;20062;-39
2023/09/02 07:20:51;;;;;;;7.93;3.15;;;;;;;18.61;83.68;101014.25;5071871;28;20101;-39
2023/09/02 07:23:19;;;;;;;10.23;3.63;;;;;;;18.45;83.49;101005.13;5087936;28;20039;-39
2023/09/02 07:25:45;;;;;;;6.82;3.13;;;;;;;18.37;83.27;101013.69;5092148;28;20111;-39
2023/09/02 07:28:11;;;;;;;7.00;2.70;;;;;;;18.29;83.64;101024.19;5092063;28;20077;-39
2023/09/02 07:30:38;;;;;;;6.45;2.70;;;;;;;18.18;84.58;101021.34;5083262;28;20504;-39
2023/09/02 07:33:04;;;;;;;7.10;3.53;;;;;;;18.11;84.79;101020.72;5071420;28;20478;-39
2023/09/02 07:35:36;;;;;;;6.30;3.58;;;;;;;17.94;85.81;101026.19;5071976;28;20397;-39
2023/09/02 07:38:05;;;;;;;6.70;3.15;;;;;;;18.11;84.82;101034.25;5072215;28;20421;-39
2023/09/02 07:40:31;;;;;;;14.07;3.78;;;;;;;17.92;85.60;101035.63;5071694;28;20533;-39
2023/09/02 07:43:03;;;;;;;5.93;2.67;;;;;;;18.14;85.79;101027.50;5071737;28;20029;-39
2023/09/02 07:45:30;;;;;;;9.07;3.40;;;;;;;18.16;85.76;101031.63;5071353;28;20029;-39
2023/09/02 07:47:56;;;;;;;15.30;3.75;;;;;;;17.79;88.40;101031.38;5076602;28;20035;-42
2023/09/02 07:50:22;;;;;;;9.98;4.65;;;;;;;17.80;88.64;101029.50;5071988;28;20028;-41
2023/09/02 07:52:49;;;;;;;11.07;4.30;;;;;;;17.85;88.43;101032.28;5071134;28;20036;-42
2023/09/02 07:55:15;;;;;;;12.43;4.35;;;;;;;17.80;88.61;101034.91;5071120;28;20029;-41
2023/09/02 07:57:41;;;;;;;14.75;4.90;;;;;;;17.57;90.26;101036.72;5073250;28;20486;-41
2023/09/02 08:00:08;;;;;;;11.85;4.07;;;;;;;17.80;89.64;101045.75;5071952;28;20025;-42
2023/09/02 08:02:34;;;;;;;13.02;4.28;;;;;;;17.67;89.33;101050.41;5071288;28;20017;-42
2023/09/02 08:05:01;;;;;;;12.13;3.60;;;;;;;17.79;89.04;101044.09;5074657;28;20036;-42
2023/09/02 08:07:27;;;;;;;9.07;4.05;;;;;;;17.83;88.66;101048.78;5075639;28;20035;-42
2023/09/02 08:09:53;;;;;;;9.70;4.25;;;;;;;17.67;89.75;101036.88;5075770;28;20028;-41
2023/09/02 08:12:19;;;;;;;13.48;3.75;;;;;;;17.66;89.95;101047.97;5076264;28;20036;-41
2023/09/02 08:14:45;;;;;;;8.93;4.00;;;;;;;17.62;90.73;101055.75;5075421;28;20063;-41
2023/09/02 08:17:12;;;;;;;16.13;4.13;;;;;;;17.64;90.30;101052.78;5078112;28;20040;-41
2023/09/02 08:19:39;;;;;;;13.73;4.30;;;;;;;17.64;90.54;101056.31;5074939;28;20521;-42
2023/09/02 08:22:05;;;;;;;8.13;4.22;;;;;;;17.72;90.43;101056.97;5084710;28;20028;-41
2023/09/02 08:24:31;;;;;;;9.10;3.88;;;;;;;17.87;89.56;101054.50;5095897;28;20020;-41
2023/09/02 08:26:57;;;;;;;9.45;3.58;;;;;;;17.93;89.76;101056.22;5080432;28;20101;-42
2023/09/02 08:29:24;;;;;;;8.80;3.78;;;;;;;17.89;89.65;101058.63;5111783;28;20027;-42
2023/09/02 08:31:54;;;;;;;10.45;3.95;;;;;;;17.94;89.37;101055.16;5100255;28;20027;-41
2023/09/02 08:34:20;;;;;;;11.73;4.25;;;;;;;17.89;89.59;101046.97;5108968;28;20054;-42
2023/09/02 08:36:46;;;;;;;7.47;3.78;;;;;;;17.99;88.56;101047.09;5095165;28;20027;-42
2023/09/02 08:39:13;;;;;;;10.13;3.70;;;;;;;17.95;88.15;101045.97;5095302;28;20032;-42
2023/09/02 08:41:41;;;;;;;8.02;3.25;;;;;;;17.98;88.44;101042.72;5095528;28;20027;-42
2023/09/02 08:44:10;;;;;;;7.88;3.92;;;;;;;18.00;88.22;101047.94;5101448;28;20023;-42
2023/09/02 08:46:41;;;;;;;8.57;3.22;;;;;;;17.99;87.34;101046.25;5113427;28;20028;-42
2023/09/02 08:49:09;;;;;;;8.85;3.22;;;;;;;17.99;87.39;101054.38;5095240;28;20174;-42
2023/09/02 08:51:36;;;;;;;8.57;3.65;;;;;;;17.91;87.78;101045.63;5094567;28;20028;-42
2023/09/02 08:54:02;;;;;;;13.38;4.72;;;;;;;17.86;88.74;101047.44;5095117;28;20107;-42
2023/09/02 08:56:29;;;;;;;9.55;4.00;;;;;;;17.90;88.85;101044.00;5094971;28;20032;-42
2023/09/02 08:58:56;;;;;;;6.82;3.83;;;;;;;17.87;88.83;101055.31;5095075;28;20058;-42
2023/09/02 09:01:23;;;;;;;9.77;3.58;;;;;;;17.90;88.38;101054.81;5112418;28;20500;-42
2023/09/02 09:03:54;;;;;;;9.00;3.22;;;;;;;18.03;87.30;101045.50;5110908;28;20115;-42
2023/09/02 09:06:24;;;;;;;11.75;3.95;;;;;;;18.04;87.13;101039.03;5094960;28;20529;-42
2023/09/02 09:08:52;;;;;;;8.77;4.47;;;;;;;18.00;87.64;101037.91;5094870;28;20032;-42
2023/09/02 09:11:21;;;;;;;8.88;3.00;;;;;;;18.02;87.82;101035.75;5094629;28;20032;-42
2023/09/02 09:13:49;;;;;;;6.00;2.97;;;;;;;17.99;87.84;101032.72;5094405;28;20081;-42
2023/09/02 09:16:24;;;;;;;11.88;4.15;;;;;;;18.14;87.44;101041.88;5093492;28;20024;-42
2023/09/02 09:18:51;;;;;;;7.85;3.80;;;;;;;18.08;87.59;101044.78;5094677;28;20020;-42
2023/09/02 09:21:20;;;;;;;10.00;4.15;;;;;;;18.16;87.14;101042.47;5094253;28;20032;-42
2023/09/02 09:23:46;;;;;;;7.93;3.35;;;;;;;18.13;87.11;101048.38;5094405;28;20020;-42
2023/09/02 09:26:15;;;;;;;5.07;3.13;;;;;;;18.09;87.14;101051.81;5094266;28;20115;-43
2023/09/02 09:28:58;;;;;;;8.68;3.30;;;;;;;18.10;87.53;101048.88;5094479;28;20024;-42
2023/09/02 09:31:26;;;;;;;4.78;2.60;;;;;;;18.24;86.66;101059.34;5094251;28;20027;-42
2023/09/02 09:34:01;;;;;;;10.32;3.83;;;;;;;18.19;86.63;101058.19;5094340;28;20020;-42
2023/09/02 09:36:29;;;;;;;8.65;3.38;;;;;;;18.19;86.26;101060.91;5094441;28;20020;-42
2023/09/02 09:38:57;;;;;;;7.05;3.75;;;;;;;18.12;86.73;101062.16;5094291;28;20028;-42
2023/09/02 09:41:25;;;;;;;6.32;2.95;;;;;;;18.10;86.62;101054.31;5093170;28;20484;-43
2023/09/02 09:44:17;;;;;;;7.15;3.35;;;;;;;18.18;86.76;101059.28;5093459;28;20486;-42
2023/09/02 09:46:43;;;;;;;5.10;3.17;;;;;;;18.16;86.53;101069.56;5094385;28;20690;-42
2023/09/02 09:49:25;;;;;;;9.90;3.47;;;;;;;18.13;86.53;101075.47;5093239;28;20166;-42
2023/09/02 09:52:00;;;;;;;4.03;2.70;;;;;;;18.17;86.21;101075.78;5093517;28;20026;-42
2023/09/02 09:54:40;;;;;;;5.18;3.70;;;;;;;18.06;86.83;101084.84;5093940;28;20023;-42
2023/09/02 09:57:10;;;;;;;5.70;3.10;;;;;;;18.17;85.96;101075.78;5091558;28;20023;-41
2023/09/02 09:59:37;;;;;;;7.47;3.10;;;;;;;18.15;86.39;101086.84;5094036;28;20489;-42
2023/09/02 10:02:04;;;;;;;5.85;3.28;;;;;;;18.18;86.26;101089.06;5093366;28;20073;-42
2023/09/02 10:04:33;;;;;;;6.47;3.13;;;;;;;18.10;86.76;101092.22;5094080;28;20166;-43
2023/09/02 10:07:04;;;;;;;5.53;2.75;;;;;;;18.34;86.41;101092.00;5074162;28;20597;-42
2023/09/02 10:09:43;;;;;;;4.47;2.83;;;;;;;18.35;85.77;101097.16;5072850;28;20024;-42
2023/09/02 10:12:11;;;;;;;7.80;3.08;;;;;;;18.21;85.91;101098.56;5073076;28;20025;-42
2023/09/02 10:14:42;;;;;;;4.03;2.95;;;;;;;18.23;86.38;101095.63;5073372;28;20028;-42
2023/09/02 10:17:09;;;;;;;6.25;2.97;;;;;;;18.35;85.78;101099.84;5073416;28;20062;-42
2023/09/02 10:19:36;;;;;;;7.65;3.67;;;;;;;18.20;86.48;101103.19;5073273;28;20082;-42
2023/09/02 10:22:04;;;;;;;6.68;3.78;;;;;;;18.23;86.96;101096.44;5077118;28;20027;-42
2023/09/02 10:24:42;;;;;;;9.30;3.60;;;;;;;18.28;87.03;101101.13;5093311;28;20028;-42
2023/09/02 10:27:29;;;;;;;10.10;3.90;;;;;;;18.21;87.40;101112.13;5092887;28;20624;-42
2023/09/02 10:30:00;;;;;;;7.10;3.45;;;;;;;18.19;87.35;101108.84;5093362;28;20040;-42
2023/09/02 10:32:40;;;;;;;8.40;3.88;;;;;;;18.35;86.95;101112.59;5092376;28;20035;-42
2023/09/02 10:35:22;;;;;;;6.95;3.88;;;;;;;18.17;87.32;101119.94;5073903;28;20549;-42
2023/09/02 10:37:58;;;;;;;8.77;3.80;;;;;;;18.07;88.33;101124.41;5073024;28;20021;-42
2023/09/02 10:40:35;;;;;;;7.65;3.15;;;;;;;18.16;87.98;101129.16;5072576;28;20482;-42
2023/09/02 10:43:02;;;;;;;9.75;3.25;;;;;;;18.23;87.09;101128.16;5088351;28;20078;-42
2023/09/02 10:45:28;;;;;;;9.23;4.28;;;;;;;18.19;87.70;101125.09;5092904;28;20024;-42
2023/09/02 10:47:54;;;;;;;15.07;4.63;;;;;;;18.20;87.32;101132.16;5090973;28;20097;-42
2023/09/02 10:50:23;;;;;;;8.27;4.10;;;;;;;18.15;87.19;101142.91;5092529;28;20020;-42
2023/09/02 10:52:55;;;;;;;6.95;3.55;;;;;;;18.32;86.68;101143.75;5092754;28;20051;-42
2023/09/02 10:55:22;;;;;;;16.70;4.38;;;;;;;18.32;86.66;101148.31;5092865;28;20082;-42
2023/09/02 10:57:56;;;;;;;10.10;4.63;;;;;;;18.16;86.89;101145.41;5079356;28;20025;-41
2023/09/02 11:00:24;;;;;;;10.98;3.88;;;;;;;18.20;87.47;101148.41;5105970;28;20024;-41
2023/09/02 11:02:53;;;;;;;7.95;3.58;;;;;;;18.16;87.75;101147.28;5109030;28;20028;-41
2023/09/02 11:05:20;;;;;;;12.25;4.47;;;;;;;18.12;87.80;101149.66;5092544;28;20167;-41
2023/09/02 11:07:48;;;;;;;8.63;4.30;;;;;;;18.08;88.17;101156.66;5092690;28;20027;-42
2023/09/02 11:10:16;;;;;;;10.35;3.50;;;;;;;17.87;89.41;101141.97;5092182;28;20436;-41
2023/09/02 11:13:00;;;;;;;11.02;4.57;;;;;;;17.86;89.63;101150.34;5087320;28;20495;-41
2023/09/02 11:15:29;;;;;;;13.57;4.95;;;;;;;17.77;90.37;101151.84;5083340;28;20044;-42
2023/09/02 11:17:56;;;;;;;11.27;3.80;;;;;;;17.87;89.85;101154.69;5079102;28;20119;-42
2023/09/02 11:20:26;;;;;;;10.32;4.32;;;;;;;17.85;90.31;101160.34;5097537;28;20512;-41
2023/09/02 11:22:59;;;;;;;10.70;4.43;;;;;;;17.85;90.38;101159.53;5094175;28;20517;-39
2023/09/02 11:25:26;;;;;;;11.90;4.55;;;;;;;17.80;91.25;101156.75;5090937;28;20111;-39
2023/09/02 11:27:55;;;;;;;9.75;4.72;;;;;;;17.92;90.76;101157.47;5086942;28;20549;-39